createdAt,value
2022-12-16T00:01:26.240Z,-4.80
2022-12-16T00:03:56.675Z,-4.80
2022-12-16T00:06:26.008Z,-4.90
2022-12-16T00:08:53.782Z,-4.80
2022-12-16T00:11:22.720Z,-4.80
2022-12-16T00:13:50.734Z,-4.90
2022-12-16T00:16:20.530Z,-4.90
2022-12-16T00:18:48.180Z,-5.00
2022-12-16T00:21:18.571Z,-5.10
2022-12-16T00:23:46.505Z,-5.00
2022-12-16T00:26:14.282Z,-5.00
2022-12-16T00:28:43.840Z,-5.00
2022-12-16T00:31:12.334Z,-5.00
2022-12-16T00:33:41.035Z,-5.10
2022-12-16T00:36:09.269Z,-5.10
2022-12-16T00:38:36.763Z,-5.00
2022-12-16T00:41:04.415Z,-3.10
2022-12-16T00:43:32.571Z,-5.00
2022-12-16T00:46:00.686Z,-5.00
2022-12-16T00:48:28.210Z,-5.10
2022-12-16T00:50:55.907Z,-5.10
2022-12-16T00:53:25.136Z,-5.10
2022-12-16T00:56:01.294Z,-5.20
2022-12-16T00:58:28.785Z,-2.80
2022-12-16T01:00:56.287Z,-5.20
2022-12-16T01:03:23.902Z,-5.20
2022-12-16T01:05:51.550Z,-5.20
2022-12-16T01:08:20.070Z,-5.30
2022-12-16T01:10:55.785Z,-5.40
2022-12-16T01:13:24.952Z,-5.40
2022-12-16T01:15:52.677Z,-5.30
2022-12-16T01:18:20.253Z,-5.30
2022-12-16T01:20:47.795Z,-5.30
2022-12-16T01:23:15.295Z,-5.30
2022-12-16T01:25:42.878Z,-5.30
2022-12-16T01:28:10.695Z,-5.30
2022-12-16T01:30:38.051Z,-5.30
2022-12-16T01:33:05.545Z,-5.00
2022-12-16T01:38:20.450Z,-5.30
2022-12-16T01:40:47.906Z,-5.30
2022-12-16T01:43:16.890Z,-5.40
2022-12-16T01:45:44.639Z,-5.30
2022-12-16T01:48:45.973Z,-5.40
2022-12-16T01:51:21.420Z,-5.40
2022-12-16T01:56:40.473Z,-5.50
2022-12-16T01:59:09.094Z,-5.80
2022-12-16T02:06:33.152Z,-5.50
2022-12-16T02:09:02.164Z,-5.70
2022-12-16T02:14:54.042Z,-5.50
2022-12-16T02:17:32.258Z,-5.50
2022-12-16T02:20:30.868Z,-5.50
2022-12-16T02:23:16.895Z,-5.60
2022-12-16T02:26:02.412Z,-5.60
2022-12-16T02:31:53.701Z,-5.60
2022-12-16T02:34:29.590Z,-5.60
2022-12-16T02:37:10.246Z,-5.60
2022-12-16T02:39:42.551Z,-5.70
2022-12-16T02:42:35.301Z,-5.70
2022-12-16T02:48:00.098Z,-5.70
2022-12-16T02:50:36.396Z,-5.70
2022-12-16T02:53:05.242Z,-4.40
2022-12-16T02:55:59.912Z,-5.80
2022-12-16T02:58:33.222Z,-5.80
2022-12-16T03:04:15.293Z,-5.70
2022-12-16T03:06:47.371Z,-5.80
2022-12-16T03:09:20.038Z,-3.50
2022-12-16T03:11:49.316Z,-3.60
2022-12-16T03:14:20.472Z,-5.80
2022-12-16T03:16:49.468Z,-5.80
2022-12-16T03:19:20.309Z,-5.80
2022-12-16T03:22:18.730Z,-5.80
2022-12-16T03:24:46.626Z,-5.90
2022-12-16T03:27:19.334Z,-5.90
2022-12-16T03:30:09.144Z,-5.90
2022-12-16T03:32:39.241Z,-5.90
2022-12-16T03:38:12.345Z,-5.90
2022-12-16T03:40:42.555Z,-5.90
2022-12-16T03:43:14.845Z,-3.90
2022-12-16T03:45:45.990Z,-6.00
2022-12-16T03:48:14.733Z,-6.00
2022-12-16T03:53:28.131Z,-6.00
2022-12-16T03:55:56.150Z,-5.90
2022-12-16T03:58:23.736Z,-6.00
2022-12-16T04:00:51.392Z,-5.90
2022-12-16T04:03:22.719Z,-4.30
2022-12-16T04:05:50.273Z,-3.80
2022-12-16T04:08:17.848Z,-6.00
2022-12-16T04:11:03.825Z,-5.80
2022-12-16T04:13:49.688Z,-5.80
2022-12-16T04:16:36.347Z,-5.90
2022-12-16T04:19:22.836Z,-5.80
2022-12-16T04:22:09.258Z,-5.80
2022-12-16T04:27:24.540Z,-5.80
2022-12-16T04:30:10.530Z,-5.70
2022-12-16T04:32:56.506Z,-5.80
2022-12-16T04:35:45.520Z,-5.80
2022-12-16T04:38:33.921Z,-5.80
2022-12-16T04:44:24.970Z,-4.10
2022-12-16T04:47:11.075Z,-5.80
2022-12-16T04:49:57.145Z,-5.70
2022-12-16T04:52:43.876Z,-5.70
2022-12-16T04:55:29.885Z,-5.70
2022-12-16T05:01:21.548Z,-5.60
2022-12-16T05:04:07.555Z,-5.60
2022-12-16T05:06:53.678Z,-5.40
2022-12-16T05:09:39.730Z,-5.70
2022-12-16T05:12:25.595Z,-3.40
2022-12-16T05:15:11.810Z,-5.80
2022-12-16T05:17:57.910Z,-5.80
2022-12-16T05:20:43.958Z,-5.80
2022-12-16T05:23:30.630Z,-5.70
2022-12-16T05:26:16.742Z,-5.70
2022-12-16T05:29:02.732Z,-5.70
2022-12-16T05:34:52.810Z,-5.70
2022-12-16T05:37:38.690Z,-5.70
2022-12-16T05:40:25.212Z,-5.70
2022-12-16T05:43:16.514Z,-5.70
2022-12-16T05:46:03.018Z,-5.80
2022-12-16T05:48:49.002Z,-4.20
2022-12-16T05:51:34.959Z,-5.90
2022-12-16T05:54:21.068Z,-5.80
2022-12-16T05:57:06.939Z,-5.90
2022-12-16T05:59:52.914Z,-3.40
2022-12-16T06:02:39.007Z,-4.00
2022-12-16T06:05:37.980Z,-5.90
2022-12-16T06:08:27.234Z,-5.80
2022-12-16T06:11:13.053Z,-6.00
2022-12-16T06:13:59.025Z,-6.00
2022-12-16T06:16:44.978Z,-4.90
2022-12-16T06:19:32.923Z,-6.30
2022-12-16T06:22:18.816Z,-6.10
2022-12-16T06:25:04.544Z,-6.10
2022-12-16T06:27:50.705Z,-6.10
2022-12-16T06:30:36.615Z,-6.00
2022-12-16T06:33:25.614Z,-6.10
2022-12-16T06:36:11.380Z,-6.10
2022-12-16T06:38:57.580Z,-5.60
2022-12-16T06:41:43.762Z,-6.20
2022-12-16T06:44:30.183Z,-6.30
2022-12-16T06:47:16.182Z,-5.60
2022-12-16T06:50:02.109Z,-6.20
2022-12-16T06:52:48.020Z,-7.40
2022-12-16T06:55:34.086Z,-6.10
2022-12-16T06:58:20.029Z,-6.10
2022-12-16T07:01:06.519Z,-4.50
2022-12-16T07:03:52.614Z,-6.10
2022-12-16T07:06:38.665Z,-4.60
2022-12-16T07:12:11.149Z,-6.10
2022-12-16T07:14:57.239Z,-6.10
2022-12-16T07:17:43.242Z,-6.30
2022-12-16T07:20:29.703Z,-4.00
2022-12-16T07:23:19.646Z,-6.20
2022-12-16T07:26:05.885Z,-6.30
2022-12-16T07:28:52.084Z,-6.30
2022-12-16T07:31:38.068Z,-6.30
2022-12-16T07:34:24.872Z,-6.50
2022-12-16T07:39:57.159Z,-6.40
2022-12-16T07:42:43.212Z,-6.40
2022-12-16T07:45:29.735Z,-6.30
2022-12-16T07:48:15.934Z,-6.30
2022-12-16T07:51:01.971Z,-6.30
2022-12-16T08:05:04.701Z,-6.10
2022-12-16T08:13:43.673Z,-6.10
2022-12-16T08:19:16.190Z,-6.00
2022-12-16T08:22:13.167Z,-4.30
2022-12-16T08:24:59.576Z,-6.10
2022-12-16T08:27:45.515Z,-6.10
2022-12-16T08:30:31.510Z,-6.10
2022-12-16T08:33:19.607Z,-5.80
2022-12-16T08:36:06.493Z,-6.00
2022-12-16T08:38:54.534Z,-4.30
2022-12-16T08:41:44.231Z,-6.00
2022-12-16T08:44:30.608Z,-6.00
2022-12-16T08:47:19.082Z,-3.00
2022-12-16T08:50:04.905Z,-5.10
2022-12-16T08:52:50.782Z,-4.60
2022-12-16T08:55:36.836Z,-5.90
2022-12-16T08:58:22.856Z,-3.10
2022-12-16T09:01:08.970Z,-4.00
2022-12-16T09:03:57.698Z,-6.00
2022-12-16T09:06:53.356Z,-4.70
2022-12-16T09:09:39.328Z,-4.00
2022-12-16T09:12:25.277Z,-4.50
2022-12-16T09:15:11.316Z,-2.90
2022-12-16T09:18:02.226Z,-5.50
2022-12-16T09:20:48.115Z,-3.50
2022-12-16T09:23:34.578Z,-3.10
2022-12-16T09:29:09.068Z,-5.10
2022-12-16T09:31:55.067Z,-3.70
2022-12-16T09:34:44.640Z,-3.70
2022-12-16T09:37:34.028Z,-3.50
2022-12-16T09:40:20.223Z,-4.00
2022-12-16T09:43:12.836Z,-3.50
2022-12-16T09:48:54.959Z,-4.70
2022-12-16T09:51:50.501Z,-4.50
2022-12-16T09:54:45.350Z,-2.30
2022-12-16T09:57:33.312Z,-2.40
2022-12-16T10:00:36.310Z,-4.30
2022-12-16T10:03:40.124Z,-4.20
2022-12-16T10:06:51.108Z,-1.60
2022-12-16T10:09:48.326Z,-4.10
2022-12-16T10:12:51.262Z,-3.90
2022-12-16T10:16:15.752Z,-3.80
2022-12-16T10:19:56.882Z,-3.90
2022-12-16T10:23:16.291Z,-3.70
2022-12-16T10:26:05.039Z,-3.70
2022-12-16T10:29:05.580Z,-2.50
2022-12-16T10:31:56.192Z,-4.30
2022-12-16T10:34:50.739Z,-1.30
2022-12-16T10:37:57.887Z,-3.10
2022-12-16T10:40:47.866Z,-3.20
2022-12-16T10:43:47.466Z,-1.90
2022-12-16T10:46:39.364Z,-0.80
2022-12-16T10:49:32.762Z,-3.20
2022-12-16T10:52:19.074Z,-3.40
2022-12-16T10:55:16.050Z,-0.70
2022-12-16T10:58:34.270Z,-0.70
2022-12-16T11:01:46.484Z,-1.70
2022-12-16T11:05:15.814Z,-2.60
2022-12-16T11:08:04.732Z,-2.70
2022-12-16T11:10:57.033Z,-2.60
2022-12-16T11:13:50.238Z,-2.10
2022-12-16T11:16:40.354Z,-2.00
2022-12-16T11:19:47.982Z,-1.90
2022-12-16T11:22:37.082Z,-0.40
2022-12-16T11:25:24.846Z,-1.70
2022-12-16T11:28:29.956Z,-1.60
2022-12-16T11:31:24.767Z,-1.60
2022-12-16T11:34:12.756Z,1.50
2022-12-16T11:37:00.334Z,-0.10
2022-12-16T11:39:48.683Z,-1.30
2022-12-16T11:42:55.557Z,-1.50
2022-12-16T11:45:42.610Z,-0.60
2022-12-16T11:48:59.226Z,-1.20
2022-12-16T11:51:49.219Z,-1.10
2022-12-16T11:54:53.231Z,1.30
2022-12-16T11:58:03.874Z,0.60
2022-12-16T12:00:52.456Z,-1.10
2022-12-16T12:03:47.582Z,1.00
2022-12-16T12:06:48.497Z,0.50
2022-12-16T12:09:40.309Z,-0.90
2022-12-16T12:12:38.024Z,-1.10
2022-12-16T12:16:02.908Z,-1.00
2022-12-16T12:18:52.821Z,-0.90
2022-12-16T12:21:46.325Z,1.30
2022-12-16T12:25:11.673Z,-0.80
2022-12-16T12:28:22.837Z,-0.70
2022-12-16T12:31:56.551Z,-0.70
2022-12-16T12:34:58.261Z,0.70
2022-12-16T12:37:58.576Z,-0.50
2022-12-16T12:41:23.248Z,1.70
2022-12-16T12:44:36.690Z,-0.40
2022-12-16T12:47:41.580Z,-1.30
2022-12-16T12:51:03.132Z,-0.40
2022-12-16T12:54:09.770Z,-0.90
2022-12-16T12:57:07.962Z,-0.30
2022-12-16T13:00:28.006Z,-0.30
2022-12-16T13:03:35.208Z,-0.30
2022-12-16T13:06:27.301Z,-0.20
2022-12-16T13:09:17.831Z,-0.20
2022-12-16T13:12:25.836Z,1.50
2022-12-16T13:15:15.273Z,-0.10
2022-12-16T13:18:24.507Z,-0.80
2022-12-16T13:21:15.919Z,-0.20
2022-12-16T13:24:03.612Z,-0.10
2022-12-16T13:26:53.822Z,-0.10
2022-12-16T13:29:43.909Z,-0.10
2022-12-16T13:32:42.728Z,-1.40
2022-12-16T13:35:28.647Z,0.00
2022-12-16T13:38:16.151Z,-0.10
2022-12-16T13:41:19.462Z,1.40
2022-12-16T13:44:14.003Z,-0.60
2022-12-16T13:47:08.042Z,2.00
2022-12-16T13:50:13.229Z,0.30
2022-12-16T13:53:00.686Z,0.10
2022-12-16T13:56:18.749Z,2.30
2022-12-16T13:59:34.151Z,0.20
2022-12-16T14:02:39.797Z,0.50
2022-12-16T14:06:12.065Z,0.30
2022-12-16T14:08:58.627Z,0.20
2022-12-16T14:12:19.603Z,1.50
2022-12-16T14:15:21.575Z,0.20
2022-12-16T14:19:04.631Z,2.50
2022-12-16T14:22:03.879Z,0.20
2022-12-16T14:25:42.209Z,2.90
2022-12-16T14:29:08.432Z,2.30
2022-12-16T14:32:05.728Z,0.10
2022-12-16T14:34:55.862Z,2.00
2022-12-16T14:38:20.441Z,2.20
2022-12-16T14:41:21.814Z,0.20
2022-12-16T14:44:33.351Z,1.50
2022-12-16T14:47:39.315Z,1.30
2022-12-16T14:50:53.417Z,2.50
2022-12-16T14:54:00.718Z,-0.10
2022-12-16T14:56:55.657Z,0.60
2022-12-16T14:59:44.453Z,2.20
2022-12-16T15:03:01.545Z,1.10
2022-12-16T15:05:54.258Z,1.70
2022-12-16T15:08:44.356Z,-0.60
2022-12-16T15:11:33.276Z,1.50
2022-12-16T15:14:23.256Z,-0.40
2022-12-16T15:17:19.734Z,-0.30
2022-12-16T15:20:11.612Z,0.40
2022-12-16T15:23:06.383Z,1.10
2022-12-16T15:25:52.586Z,1.50
2022-12-16T15:28:55.175Z,-0.60
2022-12-16T15:31:50.976Z,0.90
2022-12-16T15:35:04.794Z,-0.80
2022-12-16T15:38:04.186Z,1.40
2022-12-16T15:40:59.515Z,1.20
2022-12-16T15:43:57.448Z,1.40
2022-12-16T15:46:50.436Z,-0.80
2022-12-16T15:49:41.490Z,0.60
2022-12-16T15:52:48.470Z,-1.30
2022-12-16T15:55:53.571Z,-1.60
2022-12-16T15:58:56.189Z,-1.40
2022-12-16T16:01:45.281Z,-1.70
2022-12-16T16:04:49.568Z,-1.90
2022-12-16T16:07:38.791Z,-1.70
2022-12-16T16:10:37.331Z,-1.30
2022-12-16T16:13:28.136Z,-1.70
2022-12-16T16:16:30.994Z,-1.80
2022-12-16T16:19:28.383Z,0.20
2022-12-16T16:22:21.983Z,-0.70
2022-12-16T16:25:30.273Z,0.40
2022-12-16T16:28:19.654Z,-2.20
2022-12-16T16:31:06.009Z,-0.10
2022-12-16T16:33:54.236Z,-2.10
2022-12-16T16:37:24.166Z,0.10
2022-12-16T16:40:22.643Z,0.30
2022-12-16T16:43:12.771Z,-4.30
2022-12-16T16:46:14.193Z,-0.40
2022-12-16T16:49:04.034Z,0.10
2022-12-16T16:51:50.769Z,-1.50
2022-12-16T16:54:54.830Z,0.00
2022-12-16T16:57:47.477Z,-1.90
2022-12-16T17:00:46.815Z,0.00
2022-12-16T17:03:35.836Z,-1.80
2022-12-16T17:07:01.335Z,0.30
2022-12-16T17:10:08.956Z,-2.60
2022-12-16T17:13:26.030Z,-3.50
2022-12-16T17:16:20.455Z,-3.50
2022-12-16T17:19:33.980Z,-0.10
2022-12-16T17:22:19.031Z,0.60
2022-12-16T17:25:15.249Z,-2.40
2022-12-16T17:28:10.858Z,-3.00
2022-12-16T17:30:59.745Z,-0.80
2022-12-16T17:33:56.669Z,0.00
2022-12-16T17:36:48.405Z,-0.50
2022-12-16T17:39:36.738Z,0.00
2022-12-16T17:42:23.061Z,-0.30
2022-12-16T17:45:14.118Z,-2.50
2022-12-16T17:48:04.567Z,-3.20
2022-12-16T17:50:52.691Z,-0.50
2022-12-16T17:53:38.811Z,-3.20
2022-12-16T17:56:31.265Z,-2.70
2022-12-16T17:59:17.231Z,-0.80
2022-12-16T18:02:03.887Z,-2.70
2022-12-16T18:04:50.481Z,-1.20
2022-12-16T18:07:38.366Z,-0.80
2022-12-16T18:10:25.131Z,-3.00
2022-12-16T18:13:13.351Z,-2.70
2022-12-16T18:16:19.306Z,-2.00
2022-12-16T18:19:08.701Z,-2.80
2022-12-16T18:21:56.622Z,-2.90
2022-12-16T18:24:48.221Z,-3.00
2022-12-16T18:27:47.169Z,-2.90
2022-12-16T18:30:35.995Z,-2.80
2022-12-16T18:33:21.993Z,-2.80
2022-12-16T18:42:22.009Z,-1.20
2022-12-16T18:45:10.685Z,-1.60
2022-12-16T18:47:59.534Z,-3.40
2022-12-16T18:50:48.609Z,-3.20
2022-12-16T18:56:40.331Z,-2.00
2022-12-16T18:59:28.878Z,-3.20
2022-12-16T19:03:21.252Z,-3.40
2022-12-16T19:06:18.580Z,-4.10
2022-12-16T19:09:04.654Z,-1.10
2022-12-16T19:14:44.535Z,-3.30
2022-12-16T19:17:44.250Z,-3.40
2022-12-16T19:20:33.440Z,-1.40
2022-12-16T19:23:27.630Z,-3.40
2022-12-16T19:26:19.833Z,-1.10
2022-12-16T19:29:09.728Z,-1.70
2022-12-16T19:32:28.452Z,-2.20
2022-12-16T19:35:15.041Z,-3.30
2022-12-16T19:38:01.205Z,-1.30
2022-12-16T19:40:50.746Z,-2.00
2022-12-16T19:43:40.611Z,-3.20
2022-12-16T19:46:29.821Z,-1.70
2022-12-16T19:49:20.271Z,-2.90
2022-12-16T19:52:06.315Z,-3.60
2022-12-16T19:54:54.797Z,-4.30
2022-12-16T19:57:44.670Z,-3.00
2022-12-16T20:03:23.228Z,-3.60
2022-12-16T20:06:39.369Z,-1.60
2022-12-16T20:12:43.285Z,-3.70
2022-12-16T20:15:31.996Z,-4.80
2022-12-16T20:18:18.015Z,-3.90
2022-12-16T20:21:12.321Z,-2.60
2022-12-16T20:24:00.716Z,-3.80
2022-12-16T20:26:46.778Z,-2.00
2022-12-16T20:29:37.481Z,-4.30
2022-12-16T20:32:24.006Z,-3.90
2022-12-16T20:35:10.241Z,-0.80
2022-12-16T20:38:10.877Z,-4.70
2022-12-16T20:40:59.233Z,-2.30
2022-12-16T20:43:47.661Z,-4.40
2022-12-16T20:49:22.552Z,-3.80
2022-12-16T20:52:10.539Z,-0.80
2022-12-16T20:54:56.605Z,-1.70
2022-12-16T20:57:57.467Z,-4.00
2022-12-16T21:00:49.090Z,-4.00
2022-12-16T21:06:33.876Z,-4.00
2022-12-16T21:09:20.177Z,-4.00
2022-12-16T21:12:06.428Z,-5.00
2022-12-16T21:15:01.068Z,-2.30
2022-12-16T21:18:07.749Z,-2.50
2022-12-16T21:21:18.257Z,-4.20
2022-12-16T21:24:05.479Z,-4.20
2022-12-16T21:26:53.848Z,-4.20
2022-12-16T21:29:42.420Z,-4.50
2022-12-16T21:32:37.257Z,-4.30
2022-12-16T21:35:31.924Z,-1.70
2022-12-16T21:41:36.311Z,-4.30
2022-12-16T21:47:49.709Z,-4.40
2022-12-16T21:50:36.164Z,-4.70
2022-12-16T21:57:20.484Z,-4.40
2022-12-16T22:02:58.430Z,-4.60
2022-12-16T22:05:49.178Z,-2.00
2022-12-16T22:08:35.106Z,-2.40
2022-12-16T22:11:28.580Z,-4.50
2022-12-16T22:14:19.494Z,-2.70
2022-12-16T22:17:06.045Z,-2.10
2022-12-16T22:20:03.445Z,-5.10
2022-12-16T22:22:49.539Z,-5.30
2022-12-16T22:25:37.986Z,-5.00
2022-12-16T22:28:27.153Z,-2.80
2022-12-16T22:31:18.149Z,-4.60
2022-12-16T22:34:20.876Z,-2.50
2022-12-16T22:37:12.023Z,-5.70
2022-12-16T22:42:50.885Z,-4.60
2022-12-16T22:45:47.026Z,-3.20
2022-12-16T22:48:34.675Z,-2.80
2022-12-16T22:51:21.284Z,-2.80
2022-12-16T22:54:09.845Z,-3.00
2022-12-16T22:56:56.551Z,-5.10
2022-12-16T22:59:42.677Z,-3.60
2022-12-16T23:02:31.378Z,-5.10
2022-12-16T23:05:21.079Z,-4.80
2022-12-16T23:08:13.103Z,-4.40
2022-12-16T23:10:59.650Z,-5.10
2022-12-16T23:13:49.701Z,-2.40
2022-12-16T23:22:11.710Z,-4.70
2022-12-16T23:24:58.060Z,-5.10
2022-12-16T23:27:44.341Z,-4.90
2022-12-16T23:30:32.742Z,-4.90
2022-12-16T23:33:37.726Z,-4.80
2022-12-16T23:36:37.305Z,-2.50
2022-12-16T23:39:26.272Z,-2.80
2022-12-16T23:42:19.554Z,-3.10
2022-12-16T23:45:10.305Z,-2.90
2022-12-16T23:48:02.444Z,-3.70
2022-12-16T23:50:54.645Z,-3.50
2022-12-16T23:53:42.288Z,-4.80
2022-12-16T23:56:28.392Z,-5.20
2022-12-16T23:59:16.941Z,-4.90
